Estación Meteorológica Peña el Pijo (Robertgarden) [ 01/30/23 13:41:11 CET ]

Fecha Hora Presion(HPa) Temp (°C) Humedad % Rocio (°C) Viento ( m/s) Direccion Lluvia 1Hora(mm) Lluvia 24H(mm) LLuvia Total(mm)
2010-Oct-07 01:01:13 1007.700 9.6 78 5.9         161.61
2010-Oct-07 02:01:13 1007.600 9.3 81 6.2         161.61
2010-Oct-07 03:07:09 1007.700 9.0 84 6.4         161.61
2010-Oct-07 04:01:14 1007.200 8.6 85 6.2         161.61
2010-Oct-07 05:01:11 1007.000 8.3 87 6.3         161.61
2010-Oct-07 06:01:13 1007.300 8.1 88 6.2         161.61
2010-Oct-07 07:01:17 1007.600 7.8 88 6.0         161.61
2010-Oct-07 08:01:16 1007.700 8.9 89 7.2         161.61
2010-Oct-07 09:01:12 1008.000 8.6 89 6.9         161.61
2010-Oct-07 10:01:14 1008.700 13.5 85 11.0         161.61
2010-Oct-07 11:01:13 1008.900 18.2 72 13.1         161.61
2010-Oct-07 15:31:17 1007.600 26.7 44 13.4         161.61
2010-Oct-07 16:01:14 1007.300 26.8 46 14.2         161.61
2010-Oct-07 17:01:15 1007.400 24.4 51 13.6         161.61
2010-Oct-07 18:01:17 1007.200 21.7 56 12.5         161.61
2010-Oct-07 19:01:14 1008.300 18.4 76 14.1         161.61
2010-Oct-07 20:01:10 1008.500 16.6 83 13.7         161.61
2010-Oct-07 21:01:12 1009.300 15.9 88 13.9         161.61
2010-Oct-07 22:01:14 1009.700 15.4 90 13.8     5.18 5.18 166.79
2010-Oct-07 23:01:11 1009.700 14.3 90 12.7       5.18 166.79

Temperatura Máxima:26°    Temperatura Mínima:
Presión Máxima:1009.700 Hpa    Presión Mínima:1007.000 Hpa


Volver